Time;durP1;ratioP1;P1;durP2;ratioP2;P2;SDS_P1;SDS_P2;PMS_P1;PMS_P2;Temp;Humidity;BMP_temperature;BMP_pressure;BME280_temperature;BME280_humidity;BME280_pressure;Samples;Min_cycle;Max_cycle;Signal;HPM_P1;HPM_P2
2021/08/14 00:00:55;;;;;;;8.52;5.88;;;;;;;15.68;93.74;99379.50;5067124;28;20020;-69
2021/08/14 00:03:21;;;;;;;12.70;6.93;;;;;;;15.58;93.80;99378.00;5066902;28;20119;-69
2021/08/14 00:05:46;;;;;;;8.88;5.75;;;;;;;15.57;93.67;99384.22;5066911;28;20259;-69
2021/08/14 00:08:11;;;;;;;8.30;6.60;;;;;;;15.54;93.44;99381.66;5066885;28;20027;-69
2021/08/14 00:10:37;;;;;;;9.55;6.75;;;;;;;15.53;93.86;99387.84;5066831;28;20025;-69
2021/08/14 00:13:03;;;;;;;6.93;5.35;;;;;;;15.59;93.91;99389.47;5066671;28;20021;-69
2021/08/14 00:15:28;;;;;;;10.13;5.93;;;;;;;15.49;93.45;99378.25;5065506;28;20087;-69
2021/08/14 00:17:54;;;;;;;9.80;6.80;;;;;;;15.35;93.44;99390.13;5066277;28;20067;-69
2021/08/14 00:20:19;;;;;;;8.35;6.50;;;;;;;15.37;93.36;99397.16;5066616;28;20025;-69
2021/08/14 00:22:44;;;;;;;8.63;6.28;;;;;;;15.40;93.06;99394.41;5066590;28;20059;-69
2021/08/14 00:25:10;;;;;;;8.60;5.97;;;;;;;15.32;93.02;99412.28;5066551;28;20029;-69
2021/08/14 00:27:36;;;;;;;9.27;5.82;;;;;;;15.26;93.01;99395.66;5065938;28;20025;-69
2021/08/14 00:30:02;;;;;;;11.20;5.85;;;;;;;15.25;93.19;99413.34;5066438;28;20025;-69
2021/08/14 00:32:27;;;;;;;12.25;5.90;;;;;;;15.23;93.15;99423.97;5066320;28;20047;-69
2021/08/14 00:34:53;;;;;;;11.80;6.28;;;;;;;15.29;93.26;99420.31;5066373;28;20316;-69
2021/08/14 00:37:18;;;;;;;11.40;6.68;;;;;;;15.35;93.81;99430.78;5066307;28;20061;-69
2021/08/14 00:39:43;;;;;;;8.65;6.43;;;;;;;15.40;93.72;99431.56;5066275;28;20048;-69
2021/08/14 00:42:09;;;;;;;9.63;5.63;;;;;;;15.31;92.86;99437.06;5064564;28;20305;-69
2021/08/14 00:44:34;;;;;;;9.57;5.88;;;;;;;15.13;92.83;99437.53;5066177;28;20029;-69
2021/08/14 00:47:03;;;;;;;9.18;6.05;;;;;;;14.99;93.28;99444.94;5066082;28;20025;-69
2021/08/14 00:49:29;;;;;;;10.80;6.28;;;;;;;15.05;93.61;99439.50;5066071;28;20328;-69
2021/08/14 00:51:54;;;;;;;10.13;5.50;;;;;;;15.14;93.67;99439.28;5065940;28;20031;-69
2021/08/14 00:54:19;;;;;;;7.47;5.03;;;;;;;15.21;93.66;99467.38;5065989;28;20024;-69
2021/08/14 00:56:46;;;;;;;9.55;6.10;;;;;;;15.12;93.77;99464.94;5065928;28;20036;-69
2021/08/14 00:59:11;;;;;;;10.30;5.30;;;;;;;15.04;93.47;99474.88;5065186;28;20067;-69
2021/08/14 01:01:36;;;;;;;9.02;5.28;;;;;;;14.97;93.49;99468.84;5065921;28;20064;-69
2021/08/14 01:04:02;;;;;;;10.25;4.97;;;;;;;14.97;93.51;99478.59;5065759;28;20092;-69
2021/08/14 01:06:28;;;;;;;9.55;4.90;;;;;;;14.86;93.35;99476.19;5064633;28;20110;-69
2021/08/14 01:08:55;;;;;;;9.90;5.57;;;;;;;14.85;93.58;99481.53;5065721;28;20025;-69
2021/08/14 01:11:21;;;;;;;12.70;5.70;;;;;;;14.85;93.61;99482.41;5065684;28;20056;-69
2021/08/14 01:13:47;;;;;;;11.48;5.97;;;;;;;14.79;93.51;99492.25;5065571;28;20198;-69
2021/08/14 01:16:13;;;;;;;7.75;5.43;;;;;;;14.87;93.66;99498.25;5065567;28;20031;-69
2021/08/14 01:18:43;;;;;;;11.25;6.03;;;;;;;14.75;93.66;99494.09;5065554;28;20051;-69
2021/08/14 01:21:09;;;;;;;9.05;5.80;;;;;;;14.71;93.74;99502.13;5064340;28;20100;-69
2021/08/14 01:23:35;;;;;;;9.90;5.03;;;;;;;14.83;93.54;99502.75;5049618;28;20021;-69
2021/08/14 01:26:08;;;;;;;7.20;4.57;;;;;;;14.85;93.02;99508.03;5065421;28;20086;-69
2021/08/14 01:28:35;;;;;;;5.47;4.15;;;;;;;14.81;92.80;99519.59;5065338;28;20330;-69
2021/08/14 01:31:04;;;;;;;6.72;4.75;;;;;;;14.80;92.83;99512.53;5065320;28;20028;-69
2021/08/14 01:33:34;;;;;;;7.00;4.43;;;;;;;14.80;93.20;99518.72;5065184;28;20081;-69
2021/08/14 01:36:11;;;;;;;5.32;4.22;;;;;;;14.61;93.28;99500.59;5065262;28;20119;-69
2021/08/14 01:39:04;;;;;;;8.55;4.63;;;;;;;14.59;93.79;99524.47;5064225;28;20098;-69
2021/08/14 01:41:29;;;;;;;11.95;4.70;;;;;;;14.60;93.72;99509.47;5062841;28;20029;-69
2021/08/14 01:44:04;;;;;;;10.38;4.70;;;;;;;14.55;93.24;99528.09;5065032;28;20055;-69
2021/08/14 01:46:32;;;;;;;10.23;5.03;;;;;;;14.56;93.54;99523.69;5065048;28;20228;-69
2021/08/14 01:48:58;;;;;;;7.05;4.85;;;;;;;14.66;93.34;99531.41;5063829;28;20048;-69
2021/08/14 01:51:24;;;;;;;8.32;5.63;;;;;;;14.61;93.52;99532.41;5047297;28;20093;-69
2021/08/14 01:53:52;;;;;;;6.75;4.78;;;;;;;14.64;93.29;99542.94;5044845;28;20040;-69
2021/08/14 01:56:18;;;;;;;9.55;5.10;;;;;;;14.58;93.25;99538.63;5043706;28;20225;-69
2021/08/14 01:58:44;;;;;;;9.32;4.53;;;;;;;14.57;92.92;99541.31;5044822;28;20220;-69
2021/08/14 02:01:10;;;;;;;7.60;4.85;;;;;;;14.51;92.78;99544.97;5044607;28;20072;-69
2021/08/14 02:03:36;;;;;;;8.45;4.88;;;;;;;14.49;93.05;99544.13;5045735;28;20021;-69
2021/08/14 02:06:02;;;;;;;10.32;5.25;;;;;;;14.59;92.94;99571.31;5063523;28;20025;-69
2021/08/14 02:08:28;;;;;;;10.20;5.30;;;;;;;14.48;93.10;99583.91;5064602;28;20028;-69
2021/08/14 02:10:54;;;;;;;10.07;5.38;;;;;;;14.33;92.79;99539.19;5064545;28;20028;-69
2021/08/14 02:13:20;;;;;;;7.70;5.18;;;;;;;14.25;93.05;99538.47;5064435;28;20087;-69
2021/08/14 02:15:45;;;;;;;7.95;5.50;;;;;;;14.23;93.51;99524.38;5063319;28;20344;-69
2021/08/14 02:18:10;;;;;;;7.25;5.10;;;;;;;14.22;93.58;99554.38;5064419;28;20043;-69
2021/08/14 02:20:36;;;;;;;9.60;5.35;;;;;;;14.31;92.88;99531.28;5064347;28;20028;-69
2021/08/14 02:23:01;;;;;;;12.82;5.03;;;;;;;14.28;93.08;99514.56;5064377;28;20043;-69
2021/08/14 02:25:26;;;;;;;9.68;5.07;;;;;;;14.35;93.66;99498.53;5064311;28;20021;-69
2021/08/14 02:27:52;;;;;;;6.70;4.80;;;;;;;14.36;92.99;99509.97;5063336;28;20021;-69
2021/08/14 02:30:17;;;;;;;8.13;5.20;;;;;;;14.34;92.89;99511.78;5064222;28;20024;-69
2021/08/14 02:32:43;;;;;;;10.75;5.32;;;;;;;14.25;92.32;99501.38;5053516;28;20029;-69
2021/08/14 02:35:09;;;;;;;12.82;6.00;;;;;;;14.16;93.28;99501.53;5044217;28;20021;-69
2021/08/14 02:37:34;;;;;;;8.30;4.05;;;;;;;14.22;93.07;99496.13;5044171;28;20025;-69
2021/08/14 02:39:59;;;;;;;6.18;4.57;;;;;;;14.17;92.69;99487.38;5044133;28;20029;-69
2021/08/14 02:42:25;;;;;;;6.15;4.40;;;;;;;14.13;93.04;99475.13;5043146;28;20099;-69
2021/08/14 02:44:50;;;;;;;8.15;4.93;;;;;;;14.19;93.21;99533.25;5044082;28;20029;-69
2021/08/14 02:47:15;;;;;;;11.90;4.82;;;;;;;14.06;92.82;99515.84;5044033;28;20028;-69
2021/08/14 02:49:41;;;;;;;7.05;4.40;;;;;;;14.01;92.95;99510.66;5044863;28;20084;-69
2021/08/14 02:52:06;;;;;;;12.85;5.05;;;;;;;14.02;93.55;99535.34;5043907;28;20036;-69
2021/08/14 02:54:32;;;;;;;7.25;5.05;;;;;;;13.96;93.58;99540.75;5043995;28;20077;-69
2021/08/14 02:56:57;;;;;;;11.93;3.97;;;;;;;13.88;93.19;99559.41;5044002;28;20317;-69
2021/08/14 02:59:23;;;;;;;7.07;4.22;;;;;;;13.97;93.19;99566.31;5042750;28;20067;-69
2021/08/14 03:01:48;;;;;;;7.93;4.00;;;;;;;14.03;93.25;99580.31;5042506;28;20042;-69
2021/08/14 03:04:13;;;;;;;5.85;3.90;;;;;;;14.01;92.88;99587.41;5042728;28;20025;-69
2021/08/14 03:06:39;;;;;;;6.40;3.65;;;;;;;13.83;93.04;99585.06;5044959;28;20213;-69
2021/08/14 03:09:05;;;;;;;8.25;4.40;;;;;;;13.84;93.29;99593.91;5063651;28;20097;-69
2021/08/14 03:11:31;;;;;;;20.55;5.20;;;;;;;13.81;93.95;99618.66;5063709;28;20047;-69
2021/08/14 03:13:56;;;;;;;9.18;3.40;;;;;;;13.84;94.06;99609.78;5063670;28;20317;-69
2021/08/14 03:16:22;;;;;;;5.70;3.53;;;;;;;13.90;93.56;99620.25;5063691;28;20025;-69
2021/08/14 03:18:47;;;;;;;5.93;3.92;;;;;;;13.79;93.72;99616.94;5063681;28;20048;-69
2021/08/14 03:21:13;;;;;;;11.15;3.78;;;;;;;13.75;93.15;99612.56;5063671;28;20197;-69
2021/08/14 03:23:38;;;;;;;6.93;3.55;;;;;;;13.81;93.31;99601.88;5063648;28;20066;-69
2021/08/14 03:26:03;;;;;;;5.10;4.05;;;;;;;13.78;93.32;99583.41;5063585;28;20032;-69
2021/08/14 03:28:29;;;;;;;8.90;4.50;;;;;;;13.70;93.38;99574.75;5063567;28;20037;-69
2021/08/14 03:30:54;;;;;;;7.00;4.40;;;;;;;13.77;93.08;99598.44;5063551;28;20021;-69
2021/08/14 03:33:20;;;;;;;6.55;4.40;;;;;;;13.69;93.41;99551.81;5063463;28;20021;-69
2021/08/14 03:35:45;;;;;;;6.88;4.38;;;;;;;13.78;92.81;99551.66;5052834;28;20127;-69
2021/08/14 03:38:10;;;;;;;8.63;4.57;;;;;;;13.76;92.29;99548.19;5043541;28;20025;-69
2021/08/14 03:40:36;;;;;;;5.25;3.75;;;;;;;13.72;93.07;99572.94;5043561;28;20092;-69
2021/08/14 03:43:01;;;;;;;5.50;3.65;;;;;;;13.71;93.06;99566.78;5043496;28;20017;-69
2021/08/14 03:45:27;;;;;;;6.88;3.85;;;;;;;13.73;93.48;99535.00;5043482;28;20036;-69
2021/08/14 03:47:52;;;;;;;7.57;4.05;;;;;;;13.60;93.33;99544.06;5042335;28;20025;-69
2021/08/14 03:50:17;;;;;;;7.68;4.20;;;;;;;13.48;92.61;99520.47;5042282;28;20316;-69
2021/08/14 03:52:43;;;;;;;5.55;3.78;;;;;;;13.63;93.39;99536.03;5043283;28;20025;-69
2021/08/14 03:55:09;;;;;;;4.55;3.40;;;;;;;13.61;93.04;99522.00;5043393;28;20089;-69
2021/08/14 03:57:35;;;;;;;7.00;3.60;;;;;;;13.52;93.60;99548.59;5043377;28;20316;-69
2021/08/14 04:00:00;;;;;;;18.65;4.50;;;;;;;13.43;93.01;99575.19;5043248;28;20032;-69
2021/08/14 04:02:26;;;;;;;23.60;4.30;;;;;;;13.40;93.56;99597.28;5052359;28;20051;-69
2021/08/14 04:04:51;;;;;;;8.30;4.03;;;;;;;13.41;93.62;99592.88;5066919;28;20036;-69
2021/08/14 04:07:17;;;;;;;4.97;3.47;;;;;;;13.53;93.91;99616.47;5065722;28;20102;-69
2021/08/14 04:09:42;;;;;;;7.05;3.80;;;;;;;13.58;93.22;99633.16;5066825;28;20020;-69
2021/08/14 04:12:08;;;;;;;4.20;3.15;;;;;;;13.59;93.03;99635.75;5061482;28;20217;-69
2021/08/14 04:14:33;;;;;;;8.02;3.22;;;;;;;13.52;93.35;99644.69;5046767;28;20029;-69
2021/08/14 04:16:59;;;;;;;4.35;2.95;;;;;;;13.54;93.22;99647.31;5046772;28;20081;-69
2021/08/14 04:19:24;;;;;;;12.13;3.17;;;;;;;13.59;92.91;99637.53;5046724;28;20088;-69
2021/08/14 04:21:49;;;;;;;4.43;3.28;;;;;;;13.58;93.50;99655.19;5046877;28;20040;-69
2021/08/14 04:24:15;;;;;;;5.60;3.20;;;;;;;13.50;93.24;99661.47;5046600;28;20030;-69
2021/08/14 04:26:40;;;;;;;4.78;2.90;;;;;;;13.42;92.92;99663.38;5046579;28;20317;-69
2021/08/14 04:29:06;;;;;;;4.22;2.90;;;;;;;13.35;93.06;99656.41;5045382;28;20021;-69
2021/08/14 04:31:31;;;;;;;5.80;3.17;;;;;;;13.34;93.54;99666.13;5049877;28;20212;-69
2021/08/14 04:33:57;;;;;;;3.10;2.75;;;;;;;13.48;93.66;99681.78;5066319;28;20048;-69
2021/08/14 04:36:22;;;;;;;7.57;3.08;;;;;;;13.56;93.11;99627.88;5065190;28;20031;-69
2021/08/14 04:38:48;;;;;;;5.25;3.35;;;;;;;13.57;92.54;99636.69;5066316;28;20035;-69
2021/08/14 04:41:14;;;;;;;5.30;3.38;;;;;;;13.51;92.55;99620.91;5065105;28;20028;-69
2021/08/14 04:43:40;;;;;;;4.75;3.50;;;;;;;13.50;92.92;99571.53;5066145;28;20040;-69
2021/08/14 04:46:05;;;;;;;4.68;3.40;;;;;;;13.60;92.97;99610.19;5064556;28;20078;-69
2021/08/14 04:48:30;;;;;;;8.85;3.95;;;;;;;13.63;92.71;99567.78;5066180;28;20024;-69
2021/08/14 04:50:56;;;;;;;5.90;3.72;;;;;;;13.70;92.51;99598.56;5066107;28;20025;-69
2021/08/14 04:53:21;;;;;;;7.95;4.40;;;;;;;13.73;92.26;99564.97;5065975;28;20041;-69
2021/08/14 04:55:46;;;;;;;5.60;3.70;;;;;;;13.65;93.00;99551.00;5066325;28;20080;-69
2021/08/14 04:58:13;;;;;;;7.97;3.88;;;;;;;13.73;92.82;99553.53;5066015;28;20212;-69
2021/08/14 05:00:39;;;;;;;5.38;3.50;;;;;;;13.86;92.37;99597.41;5064764;28;20025;-69
2021/08/14 05:03:04;;;;;;;7.82;4.35;;;;;;;13.91;92.27;99596.41;5065645;28;20028;-69
2021/08/14 05:05:29;;;;;;;6.78;3.53;;;;;;;13.94;92.01;99559.31;5061936;28;20020;-69
2021/08/14 05:07:55;;;;;;;9.43;3.70;;;;;;;13.93;91.87;99548.75;5054942;28;20044;-69
2021/08/14 05:10:20;;;;;;;7.20;4.32;;;;;;;13.92;92.27;99550.50;5044863;28;20040;-69
2021/08/14 05:12:45;;;;;;;8.77;3.97;;;;;;;13.97;92.52;99568.97;5044622;28;20029;-69
2021/08/14 05:15:11;;;;;;;7.20;4.20;;;;;;;14.13;92.02;99570.44;5051653;28;20025;-69
2021/08/14 05:17:37;;;;;;;6.82;4.18;;;;;;;14.35;91.96;99550.59;5044311;28;20100;-69
2021/08/14 05:20:04;;;;;;;5.75;3.35;;;;;;;15.18;90.21;99572.69;5044723;28;20031;-69
2021/08/14 05:22:29;;;;;;;7.10;3.70;;;;;;;15.92;87.58;99575.28;5044555;28;20067;-69
2021/08/14 05:24:55;;;;;;;6.25;3.80;;;;;;;16.54;84.52;99577.13;5060074;28;20020;-69
2021/08/14 05:27:20;;;;;;;5.20;2.92;;;;;;;17.05;81.62;99580.94;5063327;28;20032;-69
2021/08/14 05:29:46;;;;;;;6.38;3.47;;;;;;;17.49;79.55;99592.03;5064016;28;20033;-69
2021/08/14 05:32:12;;;;;;;5.20;3.58;;;;;;;17.83;78.80;99590.88;5064317;28;20029;-69
2021/08/14 05:34:38;;;;;;;5.90;3.10;;;;;;;18.20;77.54;99590.50;5060292;28;20021;-69
2021/08/14 05:37:03;;;;;;;4.82;3.10;;;;;;;18.70;77.04;99605.59;5062606;28;20052;-69
2021/08/14 05:39:29;;;;;;;4.95;3.20;;;;;;;19.10;74.43;99595.16;5064003;28;20090;-69
2021/08/14 05:41:54;;;;;;;5.35;3.63;;;;;;;19.40;72.65;99596.69;5063429;28;20025;-69
2021/08/14 05:44:20;;;;;;;5.45;3.45;;;;;;;19.61;72.38;99593.13;5054676;28;20028;-69
2021/08/14 05:46:45;;;;;;;7.28;3.33;;;;;;;20.00;71.66;99590.63;5063538;28;20024;-69
2021/08/14 05:49:11;;;;;;;12.00;3.88;;;;;;;20.21;71.21;99587.94;5063507;28;20312;-69
2021/08/14 05:51:36;;;;;;;12.55;3.55;;;;;;;20.67;70.03;99579.66;5063171;28;20273;-69
2021/08/14 05:54:02;;;;;;;6.55;3.60;;;;;;;21.00;69.81;99583.47;5056954;28;20084;-70
2021/08/14 05:56:28;;;;;;;9.48;3.53;;;;;;;20.82;69.42;99568.22;5042406;28;20024;-70
2021/08/14 05:58:53;;;;;;;6.72;3.63;;;;;;;21.41;68.70;99584.19;5058675;28;20024;-70
2021/08/14 06:01:19;;;;;;;6.53;3.80;;;;;;;21.62;68.37;99582.28;5062871;28;20112;-70
2021/08/14 06:03:44;;;;;;;6.88;3.50;;;;;;;21.97;67.85;99584.13;5058540;28;20265;-70
2021/08/14 06:06:10;;;;;;;8.77;3.30;;;;;;;22.44;65.51;99580.78;5043808;28;20025;-70
2021/08/14 06:08:35;;;;;;;6.97;3.75;;;;;;;22.73;65.38;99577.44;5044840;28;20088;-70
2021/08/14 06:11:01;;;;;;;8.73;4.30;;;;;;;22.91;64.24;99575.59;5043280;28;20025;-70
2021/08/14 06:13:26;;;;;;;9.75;4.50;;;;;;;22.86;64.17;99562.41;5044022;28;20025;-70
2021/08/14 06:15:52;;;;;;;10.27;4.20;;;;;;;23.28;62.67;99564.56;5043603;28;20213;-70
2021/08/14 06:18:17;;;;;;;11.23;4.13;;;;;;;23.21;64.12;99557.78;5051890;28;20020;-70
2021/08/14 06:20:43;;;;;;;6.60;4.28;;;;;;;23.25;62.70;99554.88;5059518;28;20022;-70
2021/08/14 06:23:08;;;;;;;6.32;4.35;;;;;;;23.62;63.33;99568.91;5044229;28;20032;-70
2021/08/14 06:25:33;;;;;;;8.68;3.78;;;;;;;23.83;63.20;99568.53;5060283;28;20070;-70
2021/08/14 06:27:59;;;;;;;9.32;4.05;;;;;;;24.27;61.47;99564.09;5062571;28;20031;-70
2021/08/14 06:30:24;;;;;;;7.60;4.30;;;;;;;24.45;62.74;99563.00;5055640;28;20299;-70
2021/08/14 06:32:49;;;;;;;7.95;4.30;;;;;;;24.61;61.86;99558.41;5044964;28;20035;-70
2021/08/14 06:35:15;;;;;;;6.95;4.18;;;;;;;25.35;60.62;99571.75;5061095;28;20029;-70
2021/08/14 06:37:42;;;;;;;13.35;4.57;;;;;;;25.83;58.94;99569.41;5062680;28;20389;-70
2021/08/14 06:40:09;;;;;;;8.13;3.85;;;;;;;26.12;57.88;99571.06;5043248;28;20071;-70
2021/08/14 06:42:34;;;;;;;6.70;4.28;;;;;;;26.14;57.58;99561.03;5043200;28;20013;-70
2021/08/14 06:44:59;;;;;;;10.82;4.55;;;;;;;26.52;55.91;99556.56;5053844;28;20025;-70
2021/08/14 06:47:25;;;;;;;7.93;4.35;;;;;;;26.60;56.54;99550.59;5047441;28;20017;-70
2021/08/14 06:49:50;;;;;;;7.75;4.60;;;;;;;26.57;56.71;99545.41;5051080;28;20020;-70
2021/08/14 06:52:15;;;;;;;8.23;4.55;;;;;;;26.84;55.81;99543.50;5053433;28;20025;-70
2021/08/14 06:54:41;;;;;;;7.85;4.72;;;;;;;26.65;57.19;99534.97;5044121;28;20197;-70
2021/08/14 06:57:06;;;;;;;13.68;5.30;;;;;;;27.19;55.25;99540.03;5044434;28;20332;-70
2021/08/14 06:59:32;;;;;;;8.85;4.72;;;;;;;27.25;56.19;99539.59;5049695;28;20093;-70
2021/08/14 07:01:57;;;;;;;10.45;4.75;;;;;;;27.11;56.39;99530.72;5043270;28;20044;-70
2021/08/14 07:04:23;;;;;;;11.05;4.65;;;;;;;27.74;56.63;99544.09;5043059;28;20036;-70
2021/08/14 07:06:48;;;;;;;8.43;4.38;;;;;;;27.51;56.69;99528.69;5041818;28;20198;-70
2021/08/14 07:09:14;;;;;;;6.32;4.45;;;;;;;28.03;56.67;99543.66;5045536;28;20017;-70
2021/08/14 07:11:39;;;;;;;8.48;4.20;;;;;;;28.21;56.28;99546.78;5042897;28;20025;-70
2021/08/14 07:14:05;;;;;;;9.15;4.97;;;;;;;28.36;54.94;99526.66;5046280;28;20056;-70
2021/08/14 07:16:30;;;;;;;9.90;5.05;;;;;;;28.43;54.94;99528.78;5058741;28;20018;-70
2021/08/14 07:18:55;;;;;;;7.03;4.22;;;;;;;29.05;54.21;99540.13;5060835;28;20021;-70
2021/08/14 07:21:21;;;;;;;7.75;4.38;;;;;;;29.29;54.82;99535.44;5062195;28;20025;-70
2021/08/14 07:23:46;;;;;;;9.45;4.50;;;;;;;29.87;53.73;99534.25;5054676;28;20029;-70
2021/08/14 07:26:12;;;;;;;9.10;4.70;;;;;;;30.20;51.96;99531.41;5060298;28;20021;-70
2021/08/14 07:28:37;;;;;;;9.20;4.63;;;;;;;29.54;52.98;99509.88;5048993;28;20080;-70
2021/08/14 07:31:03;;;;;;;9.25;4.55;;;;;;;29.95;52.83;99520.88;5042744;28;20320;-69
2021/08/14 07:33:28;;;;;;;7.85;4.30;;;;;;;30.32;51.86;99511.34;5059204;28;20021;-69
2021/08/14 07:35:54;;;;;;;10.23;4.55;;;;;;;30.43;51.20;99511.31;5042660;28;20244;-70
2021/08/14 07:38:19;;;;;;;12.57;5.00;;;;;;;29.66;52.54;99481.75;5065213;28;20415;-69
2021/08/14 07:40:45;;;;;;;10.32;5.15;;;;;;;30.44;50.64;99491.28;5066070;28;20025;-69
2021/08/14 07:43:10;;;;;;;8.50;4.78;;;;;;;30.74;52.01;99496.75;5066453;28;20127;-69
2021/08/14 07:45:36;;;;;;;8.07;4.70;;;;;;;31.19;52.51;99506.28;5062251;28;20021;-70
2021/08/14 07:48:07;;;;;;;9.10;4.30;;;;;;;32.02;49.88;99513.13;5047406;28;20029;-70
2021/08/14 07:50:33;;;;;;;;;;;;;;;31.81;49.14;99498.75;5047776;28;20031;-69
2021/08/14 07:53:00;;;;;;;9.27;4.55;;;;;;;32.15;49.66;99494.63;5056690;28;19980;-69
2021/08/14 07:55:26;;;;;;;7.93;4.20;;;;;;;32.15;48.79;99489.16;5067137;28;20025;-69
2021/08/14 07:57:52;;;;;;;8.32;4.57;;;;;;;31.79;48.60;99478.09;5058041;28;20029;-69
2021/08/14 08:00:20;;;;;;;7.47;4.50;;;;;;;32.91;49.20;99502.72;5047092;28;20127;-69
2021/08/14 08:02:46;;;;;;;9.82;4.68;;;;;;;33.07;47.34;99491.16;5046815;28;20047;-69
2021/08/14 08:05:12;;;;;;;12.43;4.90;;;;;;;33.01;45.83;99481.69;5047002;28;20049;-69
2021/08/14 08:07:40;;;;;;;9.10;4.18;;;;;;;33.04;46.69;99475.06;5045775;28;20067;-69
2021/08/14 08:10:07;;;;;;;6.78;4.65;;;;;;;32.53;46.96;99453.72;5046936;28;20032;-69
2021/08/14 08:12:33;;;;;;;7.03;4.55;;;;;;;32.42;47.45;99440.22;5046806;28;20033;-69
2021/08/14 08:14:58;;;;;;;7.50;4.72;;;;;;;31.71;44.94;99429.78;5046841;28;20220;-69
2021/08/14 08:17:23;;;;;;;11.38;5.43;;;;;;;31.66;44.82;99423.91;5046751;28;20030;-69
2021/08/14 08:19:49;;;;;;;8.20;4.90;;;;;;;30.71;48.59;99407.31;5046747;28;20021;-69
2021/08/14 08:22:15;;;;;;;9.55;4.88;;;;;;;30.96;48.49;99461.25;5046693;28;20022;-69
2021/08/14 08:24:40;;;;;;;7.85;4.55;;;;;;;29.83;52.04;99424.19;5046630;28;20083;-69
2021/08/14 08:27:05;;;;;;;7.80;4.85;;;;;;;30.01;50.89;99428.03;5065172;28;20020;-69
2021/08/14 08:29:31;;;;;;;12.80;5.20;;;;;;;29.93;48.51;99414.28;5066261;28;20044;-69
2021/08/14 08:31:56;;;;;;;9.02;4.57;;;;;;;30.12;52.36;99422.56;5049635;28;20283;-69
2021/08/14 08:34:24;;;;;;;7.53;4.78;;;;;;;30.08;52.33;99421.94;5046532;28;20033;-69
2021/08/14 08:36:51;;;;;;;8.00;4.60;;;;;;;30.58;54.20;99426.56;5046456;28;20328;-69
2021/08/14 08:39:16;;;;;;;7.47;5.25;;;;;;;31.38;52.41;99438.34;5046385;28;20093;-69
2021/08/14 08:41:41;;;;;;;10.02;4.43;;;;;;;32.10;48.21;99445.13;5046398;28;20111;-69
2021/08/14 08:44:07;;;;;;;8.23;4.82;;;;;;;32.73;45.84;99443.56;5046298;28;20209;-69
2021/08/14 08:46:34;;;;;;;10.30;5.00;;;;;;;32.64;41.40;99428.97;5044581;28;20029;-69
2021/08/14 08:49:01;;;;;;;9.48;5.18;;;;;;;33.33;40.61;99431.25;5045608;28;20093;-69
2021/08/14 08:51:30;;;;;;;7.07;4.63;;;;;;;33.58;42.68;99436.00;5046149;28;20025;-69
2021/08/14 08:53:56;;;;;;;9.10;4.75;;;;;;;34.02;41.16;99427.75;5056105;28;20209;-69
2021/08/14 08:56:22;;;;;;;6.80;4.80;;;;;;;34.06;41.02;99418.22;5066081;28;20031;-69
2021/08/14 08:58:47;;;;;;;10.70;5.13;;;;;;;34.33;41.35;99422.69;5066280;28;20021;-69
2021/08/14 09:01:13;;;;;;;7.43;4.95;;;;;;;34.50;37.76;99413.59;5065765;28;20041;-69
2021/08/14 09:03:39;;;;;;;9.02;5.28;;;;;;;34.20;39.31;99397.66;5065803;28;20262;-69
2021/08/14 09:06:04;;;;;;;7.97;5.18;;;;;;;34.48;39.42;99394.63;5062471;28;20017;-69
2021/08/14 09:08:30;;;;;;;9.00;4.85;;;;;;;34.53;39.92;99377.72;5045824;28;20017;-69
2021/08/14 09:11:15;;;;;;;9.43;5.68;;;;;;;33.87;37.52;99360.16;5044632;28;20021;-69
2021/08/14 09:14:02;;;;;;;6.38;4.95;;;;;;;33.21;38.63;99345.16;5048725;28;20347;-69
2021/08/14 09:16:27;;;;;;;10.02;5.10;;;;;;;34.01;36.17;99378.72;5065645;28;20020;-69
2021/08/14 09:18:56;;;;;;;12.38;5.75;;;;;;;33.80;34.86;99353.59;5055819;28;20056;-70
2021/08/14 09:21:36;;;;;;;10.50;5.72;;;;;;;33.86;35.57;99342.94;5045598;28;20025;-70
2021/08/14 09:24:06;;;;;;;9.93;5.03;;;;;;;34.87;34.36;99373.16;5045597;28;20335;-70
2021/08/14 09:26:38;;;;;;;13.18;5.40;;;;;;;34.65;37.76;99354.56;5045473;28;20029;-70
2021/08/14 09:29:06;;;;;;;10.20;5.55;;;;;;;34.78;35.32;99352.22;5045492;28;20029;-70
2021/08/14 09:31:49;;;;;;;9.93;5.35;;;;;;;35.11;34.17;99343.13;5045391;28;20032;-70
2021/08/14 09:34:19;;;;;;;10.77;5.63;;;;;;;34.65;35.29;99330.81;5045256;28;20064;-70
2021/08/14 09:37:00;;;;;;;13.38;5.20;;;;;;;35.04;35.45;99328.41;5045390;28;20059;-70
2021/08/14 09:39:26;;;;;;;;;;;;;;;35.14;35.26;99333.75;5045729;28;20052;-70
2021/08/14 09:42:06;;;;;;;9.77;4.82;;;;;;;34.93;34.57;99335.03;5050014;28;19904;-70
2021/08/14 09:44:36;;;;;;;9.02;5.30;;;;;;;35.32;32.35;99324.34;5065129;28;20024;-70
2021/08/14 09:47:08;;;;;;;9.15;4.90;;;;;;;35.26;33.94;99308.59;5065053;28;20017;-70
2021/08/14 09:49:54;;;;;;;10.07;4.65;;;;;;;35.09;33.06;99295.06;5065024;28;20033;-70
2021/08/14 09:52:24;;;;;;;8.85;5.03;;;;;;;35.66;32.70;99327.84;5063786;28;20400;-70
2021/08/14 09:54:51;;;;;;;9.13;4.63;;;;;;;35.57;31.58;99304.22;5064953;28;20040;-70
2021/08/14 09:57:17;;;;;;;11.80;5.22;;;;;;;35.47;34.25;99295.31;5063716;28;20268;-70
2021/08/14 09:59:48;;;;;;;8.10;5.40;;;;;;;34.83;35.37;99273.25;5062854;28;20044;-70
2021/08/14 10:02:20;;;;;;;9.77;5.50;;;;;;;35.15;33.57;99275.22;5064634;28;20101;-70
2021/08/14 10:04:47;;;;;;;9.35;5.13;;;;;;;35.27;33.59;99269.22;5064782;28;20036;-70
2021/08/14 10:07:16;;;;;;;9.05;5.05;;;;;;;35.25;32.81;99262.22;5064676;28;20025;-70
2021/08/14 10:09:46;;;;;;;9.45;5.57;;;;;;;35.51;34.05;99263.81;5049245;28;20025;-70
2021/08/14 10:12:12;;;;;;;9.93;5.28;;;;;;;34.76;34.64;99233.88;5044621;28;20036;-70
2021/08/14 10:14:43;;;;;;;9.55;5.32;;;;;;;34.79;35.81;99239.03;5044593;28;20028;-70
2021/08/14 10:17:09;;;;;;;11.13;5.03;;;;;;;34.99;35.10;99230.38;5043434;28;20064;-70
2021/08/14 10:19:36;;;;;;;8.02;4.72;;;;;;;34.77;36.18;99219.22;5044481;28;20343;-70
2021/08/14 10:22:04;;;;;;;9.05;5.13;;;;;;;34.33;36.34;99204.88;5051193;28;20189;-70
2021/08/14 10:24:38;;;;;;;11.02;5.43;;;;;;;34.06;36.51;99201.47;5062213;28;20059;-70
2021/08/14 10:27:16;;;;;;;8.27;5.20;;;;;;;34.41;34.57;99250.53;5064351;28;20083;-70
2021/08/14 10:29:49;;;;;;;12.00;5.80;;;;;;;34.67;34.39;99245.84;5062889;28;20359;-70
2021/08/14 10:32:30;;;;;;;8.70;5.43;;;;;;;34.57;37.22;99232.31;5053689;28;20045;-70
2021/08/14 10:35:14;;;;;;;7.95;5.18;;;;;;;34.68;37.11;99214.75;5044291;28;20025;-70
2021/08/14 10:37:44;;;;;;;10.38;5.80;;;;;;;34.94;35.40;99219.09;5044255;28;20017;-69
2021/08/14 10:40:11;;;;;;;7.13;4.85;;;;;;;34.81;35.54;99210.50;5044524;28;20272;-69
2021/08/14 10:42:57;;;;;;;10.35;5.65;;;;;;;34.25;37.38;99187.56;5057040;28;20017;-69
2021/08/14 10:45:25;;;;;;;15.20;5.32;;;;;;;34.43;36.76;99200.16;5063792;28;20025;-69
2021/08/14 10:47:52;;;;;;;6.90;4.95;;;;;;;34.49;36.83;99193.16;5064043;28;20321;-69
2021/08/14 10:50:32;;;;;;;9.30;5.38;;;;;;;34.35;36.68;99174.59;5062682;28;20024;-69
2021/08/14 10:53:10;;;;;;;8.33;5.03;;;;;;;34.77;36.01;99181.75;5062249;28;20388;-69
2021/08/14 10:55:36;;;;;;;11.00;5.13;;;;;;;34.72;37.31;99173.22;5063016;28;20383;-69
2021/08/14 10:58:29;;;;;;;9.18;5.40;;;;;;;34.60;35.43;99170.94;5062706;28;20043;-69
2021/08/14 11:01:20;;;;;;;9.07;5.35;;;;;;;34.33;35.93;99155.66;5055223;28;20044;-70
2021/08/14 11:03:46;;;;;;;8.95;4.97;;;;;;;34.45;36.09;99154.34;5051979;28;20032;-69
2021/08/14 11:06:29;;;;;;;8.55;5.75;;;;;;;34.46;36.80;99155.19;5043693;28;20310;-69
2021/08/14 11:09:25;;;;;;;8.55;5.50;;;;;;;34.41;35.21;99146.63;5042954;28;20021;-69
2021/08/14 11:11:57;;;;;;;13.52;5.70;;;;;;;33.86;38.82;99134.44;5045732;28;20274;-69
2021/08/14 11:14:43;;;;;;;12.75;5.28;;;;;;;34.27;37.64;99144.53;5059730;28;20024;-69
2021/08/14 11:17:11;;;;;;;9.23;5.22;;;;;;;34.49;37.05;99149.41;5055461;28;20098;-69
2021/08/14 11:19:58;;;;;;;9.80;5.53;;;;;;;34.13;36.03;99132.34;5046938;28;20088;-69
2021/08/14 11:22:26;;;;;;;8.35;5.18;;;;;;;33.90;38.15;99119.44;5046986;28;20264;-69
2021/08/14 11:24:54;;;;;;;8.45;5.38;;;;;;;34.20;36.84;99121.63;5046863;28;20021;-69
2021/08/14 11:27:21;;;;;;;8.85;5.20;;;;;;;34.46;38.20;99133.34;5065457;28;20048;-69
2021/08/14 11:29:57;;;;;;;7.65;5.45;;;;;;;34.56;36.87;99118.50;5066315;28;20366;-69
2021/08/14 11:32:23;;;;;;;8.50;5.10;;;;;;;34.38;37.37;99103.22;5066686;28;20021;-69